Аэропорт: Черновцы. Черновцы

ICAO: UKLN

METAR:
Информация по данной станции не доступна
METAR:
2020-08-11 23:08:00
TAF UKLN 112308Z 1200/1209 29005MPS 9999 SCT040 TEMPO 1200/1209 SCT033CB